Winside, Nebraska
Current Conditions -  °F | °C
As of 11:55 AM on Tuesday 21 Oct 2014 (Local Time) from KLCG Reporting Station
Clear Clear  
Wind Chill: 70°   Ceiling: Unl
Heat Index: 70°   Visibility: 10mi
Dew Point: 43°   Wind: 14mph
Humidity: 37%   Direction: 170°S
Pressure: 30.08"   Gusts: NA
Location:  42.18°N, 97.18°W
Report Text: KLCG 211655Z AUTO 17012KT 10SM CLR 21/06 A3008 RMK AO2 T02120060
Loading
Personal Weather Stations






























Interactive Weather Map
Tropical Storm Tracking
New forecast layout! Learn more

10-Day Weather Forecast

Advertisements
Track Severe Weather on mobile